Terminal Aerodrome Forecast
Issued by NWS Charleston, WV

Current Version | Previous Version | Graphics & Text | Print | Product List | Glossary On
Versions: 1 2 3 4 5 6 7 8 9 10 11 12 13 14 15 16 17 18 19 20 21 22 23 24 25 26 27 28 29 30
000
FTUS41 KRLX 200500
TAFPKB
TAF
KPKB 200523Z 2006/2106 00000KT 6SM BR SCT030 OVC050
     FM200700 00000KT 2SM BR SCT002 SCT030
     FM201100 00000KT 3SM BR BKN015
     FM201300 VRB03KT P6SM BKN025
     FM201600 16004KT P6SM BKN035
     FM202000 00000KT P6SM SCT035=

USA.gov is the U.S. government's official web portal to all federal, state and local government web resources and services.